Time;durP1;ratioP1;P1;durP2;ratioP2;P2;SDS_P1;SDS_P2;PMS_P1;PMS_P2;Temp;Humidity;BMP_temperature;BMP_pressure;BME280_temperature;BME280_humidity;BME280_pressure;Samples;Min_cycle;Max_cycle;Signal;HPM_P1;HPM_P2
2021/01/07 00:00:10;;;;;;;5.68;2.60;;;;;;;1.42;100.00;101545.78;4829675;29;20375;-81
2021/01/07 00:02:35;;;;;;;7.00;2.35;;;;;;;1.37;100.00;101544.91;4810336;29;20085;-81
2021/01/07 00:05:01;;;;;;;9.23;2.60;;;;;;;1.36;100.00;101544.03;4813982;29;20431;-80
2021/01/07 00:07:26;;;;;;;4.15;2.33;;;;;;;1.36;100.00;101537.97;4819591;29;20038;-81
2021/01/07 00:09:51;;;;;;;2.90;2.10;;;;;;;1.42;100.00;101530.16;4828782;29;20042;-81
2021/01/07 00:12:17;;;;;;;2.63;1.92;;;;;;;1.37;100.00;101534.47;4807225;29;20755;-81
2021/01/07 00:14:42;;;;;;;2.67;1.67;;;;;;;1.41;100.00;101531.03;4818303;29;20045;-81
2021/01/07 00:17:07;;;;;;;4.03;1.70;;;;;;;1.32;100.00;101537.06;4809634;29;20030;-82
2021/01/07 00:19:33;;;;;;;4.43;2.35;;;;;;;1.44;100.00;101536.25;4826168;29;20049;-82
2021/01/07 00:21:58;;;;;;;4.85;1.90;;;;;;;1.39;100.00;101530.13;4817659;29;20050;-81
2021/01/07 00:24:23;;;;;;;5.68;2.28;;;;;;;1.40;100.00;101540.56;4823852;29;20436;-80
2021/01/07 00:26:49;;;;;;;4.25;1.83;;;;;;;1.41;100.00;101531.03;4823572;29;20095;-80
2021/01/07 00:29:14;;;;;;;2.72;1.92;;;;;;;1.33;100.00;101537.94;4803524;29;20046;-80
2021/01/07 00:31:39;;;;;;;3.92;2.28;;;;;;;1.46;100.00;101529.31;4815301;29;20038;-80
2021/01/07 00:34:04;;;;;;;5.60;2.35;;;;;;;1.48;100.00;101523.22;4826445;29;20045;-82
2021/01/07 00:36:30;;;;;;;4.30;1.80;;;;;;;1.41;100.00;101529.28;4821799;29;20049;-81
2021/01/07 00:38:55;;;;;;;5.18;2.42;;;;;;;1.41;100.00;101520.63;4823056;29;20810;-81
2021/01/07 00:41:21;;;;;;;6.65;3.13;;;;;;;1.39;100.00;101520.59;4821058;29;20117;-80
2021/01/07 00:43:47;;;;;;;7.72;3.47;;;;;;;1.43;100.00;101519.75;4806153;29;20033;-81
2021/01/07 00:46:12;;;;;;;6.38;2.97;;;;;;;1.47;100.00;101520.63;4803471;29;20054;-82
2021/01/07 00:48:38;;;;;;;6.78;3.92;;;;;;;1.59;100.00;101512.84;4830053;29;20069;-82
2021/01/07 00:51:03;;;;;;;6.65;3.33;;;;;;;1.60;100.00;101519.78;4808462;29;20026;-81
2021/01/07 00:53:28;;;;;;;7.35;3.28;;;;;;;1.54;100.00;101520.66;4810197;29;20054;-82
2021/01/07 00:55:54;;;;;;;9.80;3.25;;;;;;;1.53;100.00;101518.03;4807644;29;20596;-81
2021/01/07 00:58:19;;;;;;;5.90;3.53;;;;;;;1.55;100.00;101516.28;4818139;29;20045;-82
2021/01/07 01:00:44;;;;;;;5.40;3.20;;;;;;;1.49;100.00;101513.69;4827514;29;20050;-81
2021/01/07 01:03:10;;;;;;;6.15;3.00;;;;;;;1.56;100.00;101518.06;4808897;29;20046;-82
2021/01/07 01:05:35;;;;;;;7.82;2.72;;;;;;;1.62;100.00;101506.78;4822074;29;20079;-82
2021/01/07 01:08:00;;;;;;;5.93;2.72;;;;;;;1.54;100.00;101518.03;4826000;29;20041;-80
2021/01/07 01:10:26;;;;;;;5.50;2.70;;;;;;;1.61;100.00;101513.75;4825771;29;20046;-81
2021/01/07 01:12:51;;;;;;;8.23;2.58;;;;;;;1.62;100.00;101504.19;4813614;29;20436;-82
2021/01/07 01:15:17;;;;;;;6.00;3.10;;;;;;;1.63;100.00;101504.19;4826010;29;20034;-81
2021/01/07 01:17:42;;;;;;;5.20;2.30;;;;;;;1.54;100.00;101505.00;4811956;29;20038;-80
2021/01/07 01:20:11;;;;;;;4.88;2.60;;;;;;;1.58;100.00;101508.50;4827366;29;20044;-80
2021/01/07 01:22:37;;;;;;;4.57;2.15;;;;;;;1.58;100.00;101505.91;4823401;29;20068;-80
2021/01/07 01:25:08;;;;;;;5.18;2.72;;;;;;;1.61;100.00;101503.31;4828775;29;20033;-80
2021/01/07 01:27:34;;;;;;;6.35;2.80;;;;;;;1.60;100.00;101501.56;4823737;29;20063;-79
2021/01/07 01:30:00;;;;;;;4.82;2.90;;;;;;;1.62;100.00;101506.78;4808291;29;20038;-81
2021/01/07 01:32:25;;;;;;;4.72;2.50;;;;;;;1.58;100.00;101508.50;4827719;29;20376;-80
2021/01/07 01:34:50;;;;;;;5.93;2.50;;;;;;;1.59;100.00;101512.84;4822882;29;20034;-81
2021/01/07 01:37:16;;;;;;;5.35;2.75;;;;;;;1.59;100.00;101511.97;4824043;29;20059;-80
2021/01/07 01:39:41;;;;;;;7.38;2.60;;;;;;;1.63;100.00;101512.00;4820701;29;20035;-80
2021/01/07 01:42:06;;;;;;;5.57;3.10;;;;;;;1.58;100.00;101505.91;4819656;29;20061;-81
2021/01/07 01:44:32;;;;;;;6.90;3.45;;;;;;;1.59;100.00;101504.16;4814708;29;20467;-80
2021/01/07 01:46:57;;;;;;;11.85;3.08;;;;;;;1.53;100.00;101513.69;4807671;29;20046;-80
2021/01/07 01:49:23;;;;;;;5.35;2.78;;;;;;;1.57;100.00;101505.91;4828271;29;20026;-79
2021/01/07 01:51:49;;;;;;;4.30;2.80;;;;;;;1.53;100.00;101511.09;4821832;29;20045;-79
2021/01/07 01:54:15;;;;;;;7.15;3.08;;;;;;;1.47;100.00;101508.47;4818005;29;20791;-79
2021/01/07 01:56:45;;;;;;;5.13;3.25;;;;;;;1.52;100.00;101509.34;4826694;29;20103;-80
2021/01/07 01:59:11;;;;;;;6.10;3.28;;;;;;;1.49;100.00;101500.66;4821707;29;20118;-80
2021/01/07 02:01:36;;;;;;;5.45;3.63;;;;;;;1.47;100.00;101503.25;4831583;29;20034;-80
2021/01/07 02:04:03;;;;;;;9.57;3.85;;;;;;;1.46;100.00;101500.66;4832665;29;20114;-80
2021/01/07 02:06:30;;;;;;;5.38;3.40;;;;;;;1.46;100.00;101503.28;4839178;29;20081;-80
2021/01/07 02:08:56;;;;;;;6.80;4.32;;;;;;;1.48;100.00;101498.91;4809783;29;20768;-80
2021/01/07 02:11:22;;;;;;;7.85;3.80;;;;;;;1.53;100.00;101502.41;4824321;29;20110;-80
2021/01/07 02:13:48;;;;;;;11.82;4.00;;;;;;;1.51;100.00;101501.53;4823755;29;20038;-80
2021/01/07 02:16:23;;;;;;;7.03;4.07;;;;;;;1.48;100.00;101499.78;4827792;29;20830;-80
2021/01/07 02:18:52;;;;;;;6.70;4.50;;;;;;;1.51;100.00;101492.00;4824178;29;20087;-80
2021/01/07 02:21:17;;;;;;;7.68;4.30;;;;;;;1.54;100.00;101493.72;4823051;29;20022;-80
2021/01/07 02:23:47;;;;;;;6.95;4.70;;;;;;;1.52;100.00;101491.13;4823438;29;20812;-79
2021/01/07 02:26:13;;;;;;;6.53;3.80;;;;;;;1.51;100.00;101485.91;4823444;29;20062;-80
2021/01/07 02:28:39;;;;;;;8.65;4.38;;;;;;;1.47;100.00;101486.75;4810864;29;20547;-80
2021/01/07 02:31:04;;;;;;;6.45;4.10;;;;;;;1.44;100.00;101490.22;4828973;29;20042;-81
2021/01/07 02:33:29;;;;;;;6.57;3.70;;;;;;;1.42;100.00;101491.97;4825628;29;20042;-80
2021/01/07 02:35:54;;;;;;;5.45;3.72;;;;;;;1.44;100.00;101489.34;4812231;29;20044;-79
2021/01/07 02:38:20;;;;;;;6.32;3.95;;;;;;;1.40;100.00;101482.38;4806498;29;20035;-80
2021/01/07 02:40:46;;;;;;;9.18;4.40;;;;;;;1.34;100.00;101482.38;4808311;29;20038;-80
2021/01/07 02:43:11;;;;;;;5.85;3.65;;;;;;;1.38;100.00;101476.31;4822502;29;20034;-80
2021/01/07 02:45:37;;;;;;;7.80;3.88;;;;;;;1.39;100.00;101478.91;4828728;29;20140;-79
2021/01/07 02:48:02;;;;;;;5.50;3.60;;;;;;;1.31;100.00;101478.03;4816643;29;20038;-80
2021/01/07 02:50:27;;;;;;;6.15;3.80;;;;;;;1.38;100.00;101476.31;4822312;29;20089;-80
2021/01/07 02:52:52;;;;;;;4.70;3.25;;;;;;;1.35;100.00;101468.47;4811830;29;20102;-80
2021/01/07 02:55:18;;;;;;;5.13;3.15;;;;;;;1.33;100.00;101472.81;4814004;29;20095;-80
2021/01/07 02:57:43;;;;;;;5.35;3.55;;;;;;;1.32;100.00;101466.75;4824930;29;20034;-79
2021/01/07 03:00:09;;;;;;;6.15;3.92;;;;;;;1.29;100.00;101467.59;4823631;29;20026;-80
2021/01/07 03:02:34;;;;;;;7.57;4.20;;;;;;;1.34;100.00;101471.94;4805273;29;20055;-80
2021/01/07 03:04:59;;;;;;;6.95;3.75;;;;;;;1.26;100.00;101464.13;4804387;29;20026;-79
2021/01/07 03:07:24;;;;;;;7.60;4.15;;;;;;;1.26;100.00;101471.94;4803162;29;20031;-80
2021/01/07 03:09:50;;;;;;;8.80;4.80;;;;;;;1.28;100.00;101460.66;4799514;29;20043;-79
2021/01/07 03:12:17;;;;;;;7.95;5.20;;;;;;;1.30;100.00;101463.25;4812112;29;20460;-80
2021/01/07 03:14:43;;;;;;;9.05;4.80;;;;;;;1.24;100.00;101460.63;4797406;29;20376;-79
2021/01/07 03:17:09;;;;;;;8.63;4.35;;;;;;;1.28;100.00;101459.78;4798967;29;20456;-79
2021/01/07 03:19:34;;;;;;;8.10;4.75;;;;;;;1.31;100.00;101458.94;4808410;29;20056;-80
2021/01/07 03:22:02;;;;;;;9.27;4.55;;;;;;;1.32;100.00;101460.66;4805230;29;20142;-80
2021/01/07 03:24:27;;;;;;;9.95;4.97;;;;;;;1.29;100.00;101457.16;4809922;29;20034;-80
2021/01/07 03:26:53;;;;;;;8.20;4.28;;;;;;;1.37;100.00;101454.59;4806135;29;20057;-79
2021/01/07 03:29:18;;;;;;;7.03;5.35;;;;;;;1.31;100.00;101464.16;4800453;29;20027;-80
2021/01/07 03:31:43;;;;;;;6.35;4.38;;;;;;;1.30;100.00;101450.22;4804564;29;20042;-80
2021/01/07 03:34:09;;;;;;;5.90;4.10;;;;;;;1.38;100.00;101445.06;4804662;29;20030;-79
2021/01/07 03:36:34;;;;;;;8.02;4.90;;;;;;;1.27;100.00;101452.84;4813820;29;20157;-79
2021/01/07 03:38:59;;;;;;;8.55;5.03;;;;;;;1.24;100.00;101440.66;4807511;29;20431;-79
2021/01/07 03:41:24;;;;;;;8.18;5.30;;;;;;;1.36;100.00;101444.19;4810150;29;20041;-79
2021/01/07 03:43:50;;;;;;;8.05;4.55;;;;;;;1.31;100.00;101438.97;4811643;29;20042;-79
2021/01/07 03:46:15;;;;;;;9.00;4.82;;;;;;;1.33;100.00;101442.44;4807893;29;20061;-79
2021/01/07 03:48:40;;;;;;;10.38;5.55;;;;;;;1.30;100.00;101442.41;4800199;29;20051;-79
2021/01/07 03:51:05;;;;;;;9.50;5.20;;;;;;;1.35;100.00;101445.91;4803711;29;20503;-79
2021/01/07 03:53:31;;;;;;;10.43;6.75;;;;;;;1.34;100.00;101436.34;4801506;29;20027;-79
2021/01/07 03:55:56;;;;;;;8.40;4.72;;;;;;;1.32;100.00;101438.09;4808519;29;20416;-79
2021/01/07 03:58:21;;;;;;;8.18;5.38;;;;;;;1.33;100.00;101447.63;4807017;29;20039;-79
2021/01/07 04:00:46;;;;;;;8.00;5.00;;;;;;;1.31;100.00;101441.56;4807006;29;20107;-79
2021/01/07 04:03:12;;;;;;;10.05;5.35;;;;;;;1.35;100.00;101434.63;4816324;29;20045;-79
2021/01/07 04:05:37;;;;;;;9.95;5.65;;;;;;;1.35;100.00;101439.81;4823615;29;20067;-79
2021/01/07 04:08:02;;;;;;;10.88;6.07;;;;;;;1.33;100.00;101438.97;4822512;29;20041;-80
2021/01/07 04:10:28;;;;;;;12.73;6.57;;;;;;;1.39;100.00;101439.84;4821795;29;20091;-80
2021/01/07 04:12:53;;;;;;;8.85;5.60;;;;;;;1.32;100.00;101432.88;4824909;29;20120;-80
2021/01/07 04:15:18;;;;;;;10.75;6.07;;;;;;;1.31;100.00;101433.75;4820911;29;20030;-79
2021/01/07 04:17:43;;;;;;;11.63;5.85;;;;;;;1.31;100.00;101430.28;4826216;29;20134;-79
2021/01/07 04:20:09;;;;;;;14.35;6.55;;;;;;;1.25;100.00;101424.16;4825175;29;20498;-79
2021/01/07 04:22:39;;;;;;;10.57;6.43;;;;;;;1.31;100.00;101425.09;4816817;29;20083;-79
2021/01/07 04:25:05;;;;;;;12.57;5.95;;;;;;;1.32;100.00;101424.22;4810882;29;20569;-79
2021/01/07 04:27:30;;;;;;;9.73;6.28;;;;;;;1.33;100.00;101433.75;4823343;29;20039;-79
2021/01/07 04:29:57;;;;;;;11.88;6.72;;;;;;;1.31;100.00;101428.56;4822219;29;20026;-80
2021/01/07 04:32:23;;;;;;;10.63;5.93;;;;;;;1.22;100.00;101429.38;4826881;29;20094;-79
2021/01/07 04:34:48;;;;;;;14.80;6.88;;;;;;;1.26;100.00;101427.66;4831090;29;20034;-79
2021/01/07 04:37:13;;;;;;;9.73;6.20;;;;;;;1.33;100.00;101420.72;4823980;29;20035;-79
2021/01/07 04:39:38;;;;;;;10.05;6.10;;;;;;;1.31;100.00;101415.53;4809258;29;20037;-80
2021/01/07 04:42:04;;;;;;;16.05;7.32;;;;;;;1.31;100.00;101417.28;4801166;29;20111;-79
2021/01/07 04:44:30;;;;;;;11.73;7.22;;;;;;;1.32;100.00;101414.66;4826832;29;20031;-79
2021/01/07 04:46:57;;;;;;;10.85;6.55;;;;;;;1.38;100.00;101405.97;4808636;29;20034;-79
2021/01/07 04:49:23;;;;;;;12.25;7.10;;;;;;;1.40;100.00;101412.06;4828628;29;20475;-79
2021/01/07 04:51:49;;;;;;;11.75;6.90;;;;;;;1.40;100.00;101409.44;4830412;29;20140;-79
2021/01/07 04:54:14;;;;;;;12.70;6.18;;;;;;;1.42;100.00;101400.78;4824542;29;20067;-79
2021/01/07 04:56:40;;;;;;;11.35;5.88;;;;;;;1.45;100.00;101403.38;4828164;29;20099;-79
2021/01/07 04:59:05;;;;;;;9.73;5.38;;;;;;;1.42;100.00;101395.56;4827074;29;20045;-79
2021/01/07 05:01:31;;;;;;;12.07;5.10;;;;;;;1.39;100.00;101397.31;4825052;29;20034;-79
2021/01/07 05:03:56;;;;;;;10.82;4.95;;;;;;;1.45;100.00;101398.16;4819112;29;20070;-80
2021/01/07 05:06:25;;;;;;;6.75;4.43;;;;;;;1.53;100.00;101395.59;4822593;29;20105;-79
2021/01/07 05:09:04;;;;;;;6.63;3.70;;;;;;;1.54;100.00;101392.13;4836442;29;20045;-78
2021/01/07 05:11:30;;;;;;;4.95;1.70;;;;;;;1.55;100.00;101391.25;4826623;29;20032;-78
2021/01/07 05:14:00;;;;;;;8.95;1.83;;;;;;;1.55;100.00;101394.72;4828551;29;20060;-79
2021/01/07 05:16:27;;;;;;;3.85;1.42;;;;;;;1.59;100.00;101399.94;4828394;29;20026;-79
2021/01/07 05:18:52;;;;;;;7.95;1.63;;;;;;;1.59;100.00;101400.81;4825513;29;20159;-78
2021/01/07 05:21:19;;;;;;;6.00;1.40;;;;;;;1.62;100.00;101405.16;4827740;29;20221;-78
2021/01/07 05:23:47;;;;;;;4.05;2.05;;;;;;;1.63;100.00;101402.56;4810504;29;20042;-78
2021/01/07 05:26:17;;;;;;;5.70;3.65;;;;;;;1.61;100.00;101396.47;4826355;29;20038;-81
2021/01/07 05:28:43;;;;;;;8.85;4.97;;;;;;;1.58;100.00;101391.25;4824539;29;20041;-79
2021/01/07 05:31:09;;;;;;;10.55;5.15;;;;;;;1.59;100.00;101393.00;4820442;29;20030;-80
2021/01/07 05:33:38;;;;;;;8.52;5.22;;;;;;;1.60;100.00;101392.13;4808548;29;20038;-80
2021/01/07 05:36:26;;;;;;;11.30;6.93;;;;;;;1.60;100.00;101392.13;4827847;29;20041;-80
2021/01/07 05:38:54;;;;;;;10.40;6.45;;;;;;;1.63;100.00;101386.06;4804182;29;20137;-79
2021/01/07 05:41:21;;;;;;;13.43;6.32;;;;;;;1.61;100.00;101382.56;4806296;29;20122;-80
2021/01/07 05:43:58;;;;;;;14.10;6.38;;;;;;;1.67;100.00;101380.84;4806764;29;20050;-80
2021/01/07 05:46:24;;;;;;;12.68;4.57;;;;;;;1.60;100.00;101383.44;4808866;29;20037;-79
2021/01/07 05:48:52;;;;;;;8.20;4.65;;;;;;;1.66;100.00;101381.72;4824942;29;20034;-80
2021/01/07 05:51:22;;;;;;;6.85;4.10;;;;;;;1.66;100.00;101376.50;4806027;29;20060;-79
2021/01/07 05:53:49;;;;;;;6.90;4.03;;;;;;;1.73;100.00;101375.63;4815916;29;20126;-79
2021/01/07 05:56:16;;;;;;;8.15;3.83;;;;;;;1.70;100.00;101375.63;4832706;29;20040;-79
2021/01/07 05:58:41;;;;;;;8.13;3.72;;;;;;;1.67;100.00;101370.44;4837692;29;20062;-79
2021/01/07 06:01:07;;;;;;;10.00;3.63;;;;;;;1.69;100.00;101379.09;4819821;29;20721;-79
2021/01/07 06:03:34;;;;;;;6.63;3.30;;;;;;;1.72;100.00;101373.03;4828965;29;20609;-79
2021/01/07 06:06:00;;;;;;;6.40;3.95;;;;;;;1.71;100.00;101376.50;4823376;29;20043;-79
2021/01/07 06:08:27;;;;;;;7.05;3.28;;;;;;;1.73;100.00;101374.78;4822309;29;20029;-79
2021/01/07 06:10:53;;;;;;;6.85;3.75;;;;;;;1.80;100.00;101371.28;4828727;29;20186;-79
2021/01/07 06:13:18;;;;;;;4.72;2.10;;;;;;;1.78;100.00;101368.69;4806360;29;20502;-79
2021/01/07 06:15:48;;;;;;;3.40;1.80;;;;;;;1.79;100.00;101370.41;4820787;29;20042;-78
2021/01/07 06:18:17;;;;;;;3.92;1.80;;;;;;;1.87;100.00;101369.56;4829490;29;20029;-78
2021/01/07 06:20:42;;;;;;;3.88;1.90;;;;;;;1.87;100.00;101369.56;4821021;29;20042;-78
2021/01/07 06:23:20;;;;;;;4.57;1.88;;;;;;;1.88;100.00;101369.56;4828452;29;20034;-80
2021/01/07 06:25:46;;;;;;;2.83;2.00;;;;;;;1.91;100.00;101368.66;4821267;29;20126;-78
2021/01/07 06:28:27;;;;;;;5.22;2.20;;;;;;;1.94;100.00;101376.50;4834508;29;20058;-79
2021/01/07 06:30:55;;;;;;;3.28;1.63;;;;;;;1.90;100.00;101374.75;4831534;29;20046;-78
2021/01/07 06:33:22;;;;;;;6.93;1.83;;;;;;;1.93;100.00;101374.78;4831497;29;20034;-78
2021/01/07 06:35:47;;;;;;;6.97;1.67;;;;;;;1.93;100.00;101372.16;4828952;29;20038;-80
2021/01/07 06:38:23;;;;;;;3.00;2.08;;;;;;;1.95;100.00;101370.41;4823244;29;20038;-80
2021/01/07 06:40:48;;;;;;;4.22;2.28;;;;;;;1.95;100.00;101370.41;4820667;29;20038;-79
2021/01/07 06:43:19;;;;;;;5.88;1.63;;;;;;;1.99;100.00;101374.75;4816578;29;20045;-79
2021/01/07 06:45:55;;;;;;;5.72;2.03;;;;;;;1.97;100.00;101376.50;4802994;29;20067;-80
2021/01/07 06:48:44;;;;;;;3.63;2.00;;;;;;;1.99;100.00;101377.38;4822684;29;20037;-79
2021/01/07 06:51:11;;;;;;;2.70;1.48;;;;;;;2.00;100.00;101385.19;4819343;29;20041;-79
2021/01/07 06:53:37;;;;;;;5.60;1.98;;;;;;;1.99;100.00;101379.97;4815354;29;20038;-78
2021/01/07 06:56:19;;;;;;;4.57;1.75;;;;;;;2.02;100.00;101375.63;4819563;29;20030;-79
2021/01/07 06:58:46;;;;;;;3.35;1.83;;;;;;;2.03;100.00;101374.75;4808767;29;20042;-78
2021/01/07 07:01:15;;;;;;;4.72;1.65;;;;;;;2.01;100.00;101376.50;4793426;29;20033;-79
2021/01/07 07:03:51;;;;;;;3.70;1.30;;;;;;;2.01;100.00;101373.91;4812919;29;20115;-79
2021/01/07 07:06:19;;;;;;;3.40;1.05;;;;;;;1.99;100.00;101378.22;4817618;29;20356;-78
2021/01/07 07:08:46;;;;;;;2.25;1.00;;;;;;;1.97;100.00;101379.13;4815370;29;20038;-78
2021/01/07 07:11:28;;;;;;;3.95;1.33;;;;;;;2.01;100.00;101386.06;4818160;29;20049;-78
2021/01/07 07:13:56;;;;;;;2.72;1.20;;;;;;;1.99;100.00;101383.44;4818006;29;20043;-80
2021/01/07 07:16:23;;;;;;;6.57;1.30;;;;;;;1.99;100.00;101383.44;4814015;29;20041;-78
2021/01/07 07:18:55;;;;;;;4.85;1.15;;;;;;;2.06;100.00;101390.41;4815184;29;20430;-78
2021/01/07 07:21:24;;;;;;;5.90;1.50;;;;;;;2.04;100.00;101386.91;4796086;29;20029;-78
2021/01/07 07:23:51;;;;;;;2.83;1.33;;;;;;;2.03;100.00;101386.94;4810236;29;20082;-79
2021/01/07 07:26:40;;;;;;;9.48;1.80;;;;;;;2.04;100.00;101388.66;4817209;29;20034;-79
2021/01/07 07:29:18;;;;;;;3.67;1.30;;;;;;;2.12;100.00;101392.13;4806543;29;20034;-79
2021/01/07 07:31:46;;;;;;;2.83;1.48;;;;;;;2.12;100.00;101392.13;4818445;29;20034;-79
2021/01/07 07:34:13;;;;;;;3.95;1.33;;;;;;;2.15;100.00;101392.13;4816655;29;20030;-79
2021/01/07 07:36:39;;;;;;;8.43;1.55;;;;;;;2.19;100.00;101395.59;4814248;29;20034;-80
2021/01/07 07:39:05;;;;;;;6.47;1.50;;;;;;;2.15;100.00;101394.72;4817495;29;20110;-83
2021/01/07 07:41:38;;;;;;;3.72;1.20;;;;;;;2.12;100.00;101401.72;4808123;29;20774;-80
2021/01/07 07:44:06;;;;;;;3.25;1.17;;;;;;;2.13;100.00;101401.69;4818931;29;20091;-79
2021/01/07 07:46:32;;;;;;;35.97;2.42;;;;;;;2.12;100.00;101402.56;4820207;29;20152;-80
2021/01/07 07:49:02;;;;;;;1.55;0.95;;;;;;;2.16;100.00;101400.81;4808812;29;20035;-82
2021/01/07 07:51:27;;;;;;;3.92;1.10;;;;;;;2.15;100.00;101412.97;4810511;29;20026;-80
2021/01/07 07:54:07;;;;;;;3.88;1.20;;;;;;;2.16;100.00;101408.63;4819106;29;20504;-80
2021/01/07 07:56:33;;;;;;;4.07;1.48;;;;;;;2.18;100.00;101418.22;4819504;29;20046;-79
2021/01/07 07:59:04;;;;;;;7.07;1.50;;;;;;;2.13;100.00;101414.72;4814100;29;20392;-80
2021/01/07 08:01:38;;;;;;;6.07;1.25;;;;;;;2.15;100.00;101410.38;4815681;29;20034;-80
2021/01/07 08:04:08;;;;;;;3.67;1.45;;;;;;;2.14;100.00;101415.59;4806214;29;20046;-80
2021/01/07 08:06:36;;;;;;;6.07;1.75;;;;;;;2.11;100.00;101424.31;4817583;29;20117;-80
2021/01/07 08:09:06;;;;;;;4.60;1.45;;;;;;;2.15;100.00;101427.75;4822787;29;20040;-82
2021/01/07 08:11:39;;;;;;;4.57;1.75;;;;;;;2.13;100.00;101422.56;4805157;29;20026;-82
2021/01/07 08:14:06;;;;;;;7.07;1.95;;;;;;;2.17;100.00;101418.22;4803962;29;20026;-80
2021/01/07 08:16:31;;;;;;;6.60;1.42;;;;;;;2.16;100.00;101417.34;4828005;29;20431;-81
2021/01/07 08:18:56;;;;;;;6.05;1.90;;;;;;;2.18;100.00;101423.44;4827276;29;20032;-80
2021/01/07 08:21:23;;;;;;;4.93;1.80;;;;;;;2.21;100.00;101435.56;4808981;29;20095;-81
2021/01/07 08:23:48;;;;;;;4.20;1.45;;;;;;;2.18;100.00;101435.59;4826722;29;20592;-81
2021/01/07 08:26:40;;;;;;;8.60;3.85;;;;;;;2.22;100.00;101440.81;4824883;29;20034;-81
2021/01/07 08:29:08;;;;;;;5.30;1.77;;;;;;;2.22;100.00;101445.16;4817970;29;20053;-81
2021/01/07 08:31:38;;;;;;;3.67;1.50;;;;;;;2.19;100.00;101447.75;4817097;29;20034;-81
2021/01/07 08:34:03;;;;;;;4.10;1.30;;;;;;;2.13;100.00;101440.81;4812606;29;20045;-81
2021/01/07 08:36:31;;;;;;;6.93;1.17;;;;;;;2.12;100.00;101443.44;4833495;29;20042;-80
2021/01/07 08:38:56;;;;;;;7.25;1.10;;;;;;;2.07;100.00;101443.44;4833280;29;20782;-83
2021/01/07 08:41:21;;;;;;;3.10;1.10;;;;;;;2.06;100.00;101439.94;4831437;29;20066;-82
2021/01/07 08:43:48;;;;;;;4.83;0.90;;;;;;;1.99;100.00;101442.53;4825801;29;20040;-81
2021/01/07 08:46:25;;;;;;;5.32;0.98;;;;;;;2.00;100.00;101449.50;4828251;29;20357;-80
2021/01/07 08:49:03;;;;;;;3.03;0.95;;;;;;;1.86;100.00;101441.69;4806960;29;20377;-79
2021/01/07 08:51:36;;;;;;;6.15;1.10;;;;;;;1.83;100.00;101431.25;4821750;29;20121;-78
2021/01/07 08:54:10;;;;;;;4.55;1.20;;;;;;;1.83;100.00;101431.25;4817005;29;20099;-78
2021/01/07 08:56:37;;;;;;;6.85;1.00;;;;;;;1.81;100.00;101430.38;4815561;29;20743;-81
2021/01/07 08:59:21;;;;;;;4.90;1.27;;;;;;;1.86;100.00;101432.97;4819367;29;20038;-80
2021/01/07 09:01:52;;;;;;;4.30;1.23;;;;;;;1.91;100.00;101434.75;4803595;29;20038;-81
2021/01/07 09:04:37;;;;;;;4.88;0.93;;;;;;;1.92;100.00;101422.56;4807418;29;20121;-83
2021/01/07 09:07:06;;;;;;;5.40;1.15;;;;;;;1.93;100.00;101432.13;4809518;29;20121;-83
2021/01/07 09:09:52;;;;;;;2.83;0.90;;;;;;;1.98;100.00;101428.63;4809523;29;20046;-81
2021/01/07 09:12:20;;;;;;;10.98;1.50;;;;;;;2.03;100.00;101433.88;4824572;29;20026;-79
2021/01/07 09:14:51;;;;;;;5.60;1.10;;;;;;;2.06;100.00;101439.94;4809456;29;20054;-80
2021/01/07 09:17:19;;;;;;;3.97;1.20;;;;;;;2.07;100.00;101446.91;4810497;29;20041;-80
2021/01/07 09:19:48;;;;;;;5.35;1.13;;;;;;;1.99;100.00;101443.41;4823636;29;20049;-79
2021/01/07 09:22:24;;;;;;;8.50;1.45;;;;;;;1.95;100.00;101444.28;4802673;29;20068;-81
2021/01/07 09:24:50;;;;;;;7.15;1.50;;;;;;;1.92;100.00;101439.06;4815334;29;20062;-81
2021/01/07 09:27:20;;;;;;;6.55;1.42;;;;;;;1.91;100.00;101437.34;4823947;29;20065;-81
2021/01/07 09:29:46;;;;;;;8.95;1.80;;;;;;;1.96;100.00;101434.75;4824427;29;20035;-83
2021/01/07 09:32:13;;;;;;;6.90;1.80;;;;;;;1.98;100.00;101441.69;4802188;29;20067;-82
2021/01/07 09:34:39;;;;;;;6.03;1.45;;;;;;;2.03;100.00;101439.06;4823315;29;20098;-82
2021/01/07 09:37:08;;;;;;;5.00;1.65;;;;;;;2.05;100.00;101448.63;4809078;29;20485;-80
2021/01/07 09:39:34;;;;;;;3.80;1.10;;;;;;;2.03;100.00;101439.94;4813191;29;20033;-81
2021/01/07 09:41:59;;;;;;;7.72;1.83;;;;;;;2.04;100.00;101440.81;4806635;29;20034;-79
2021/01/07 09:44:25;;;;;;;11.73;2.35;;;;;;;2.08;100.00;101439.94;4806671;29;20034;-80
2021/01/07 09:46:52;;;;;;;5.30;2.20;;;;;;;2.13;100.00;101440.81;4804347;29;20413;-79
2021/01/07 09:49:17;;;;;;;6.57;1.52;;;;;;;2.24;100.00;101435.59;4804740;29;20068;-81
2021/01/07 09:51:46;;;;;;;5.72;2.00;;;;;;;2.30;100.00;101435.56;4822709;29;20069;-81
2021/01/07 09:54:11;;;;;;;7.97;1.60;;;;;;;2.39;100.00;101432.97;4820968;29;20026;-80
2021/01/07 09:56:36;;;;;;;9.80;1.45;;;;;;;2.34;100.00;101429.50;4808652;29;20053;-81
2021/01/07 09:59:02;;;;;;;6.65;1.73;;;;;;;2.35;100.00;101433.81;4826059;29;20033;-80
2021/01/07 10:01:27;;;;;;;5.68;1.65;;;;;;;2.42;100.00;101439.94;4825850;29;20037;-80
2021/01/07 10:03:52;;;;;;;11.10;1.70;;;;;;;2.48;100.00;101440.78;4815548;29;20070;-80
2021/01/07 10:06:18;;;;;;;4.10;1.50;;;;;;;2.55;100.00;101442.50;4821678;29;20506;-81
2021/01/07 10:08:43;;;;;;;3.95;1.45;;;;;;;2.56;100.00;101440.75;4800932;29;20749;-79
2021/01/07 10:11:11;;;;;;;10.90;1.58;;;;;;;2.67;100.00;101436.41;4801399;29;20023;-82
2021/01/07 10:13:37;;;;;;;2.42;1.50;;;;;;;2.69;100.00;101439.00;4806752;29;20072;-81
2021/01/07 10:16:03;;;;;;;8.80;2.30;;;;;;;2.75;100.00;101433.75;4817561;29;20030;-82
2021/01/07 10:18:28;;;;;;;11.43;2.28;;;;;;;2.76;100.00;101427.66;4826278;29;20038;-83
2021/01/07 10:20:59;;;;;;;16.15;2.92;;;;;;;2.79;100.00;101438.97;4801877;29;20043;-83
2021/01/07 10:23:28;;;;;;;7.65;2.10;;;;;;;2.88;100.00;101435.47;4804557;29;20035;-80
2021/01/07 10:25:55;;;;;;;8.57;2.00;;;;;;;2.82;100.00;101433.75;4823823;29;20038;-81
2021/01/07 10:28:22;;;;;;;8.23;2.40;;;;;;;2.89;100.00;101426.75;4818160;29;20042;-80
2021/01/07 10:30:47;;;;;;;12.20;1.40;;;;;;;2.90;100.00;101440.66;4822499;29;20594;-80
2021/01/07 10:33:14;;;;;;;6.03;1.75;;;;;;;2.95;100.00;101431.94;4829071;29;20026;-82
2021/01/07 10:35:39;;;;;;;5.28;1.60;;;;;;;3.02;100.00;101436.28;4821640;29;20034;-81
2021/01/07 10:38:07;;;;;;;11.13;1.85;;;;;;;3.07;100.00;101434.53;4809479;29;20067;-83
2021/01/07 10:40:35;;;;;;;9.93;1.70;;;;;;;3.09;100.00;101431.91;4824720;29;20070;-84
2021/01/07 10:43:01;;;;;;;4.35;1.85;;;;;;;3.08;100.00;101430.16;4805233;29;20034;-82
2021/01/07 10:45:27;;;;;;;8.50;1.80;;;;;;;2.99;100.00;101435.41;4825260;29;20050;-82
2021/01/07 10:47:59;;;;;;;7.22;2.80;;;;;;;2.98;100.00;101431.06;4797273;29;20068;-81
2021/01/07 10:50:28;;;;;;;4.97;2.10;;;;;;;2.95;100.00;101431.06;4817139;29;20134;-84
2021/01/07 10:53:10;;;;;;;7.35;1.75;;;;;;;2.89;100.00;101428.50;4806314;29;20026;-83
2021/01/07 10:55:57;;;;;;;6.72;1.48;;;;;;;2.87;100.00;101428.50;4805249;29;20050;-84
2021/01/07 10:58:38;;;;;;;11.30;1.50;;;;;;;2.98;100.00;101413.66;4815519;29;20677;-84
2021/01/07 11:01:46;;;;;;;6.03;1.65;;;;;;;3.03;100.00;101414.50;4824949;29;20027;-82
2021/01/07 11:04:32;;;;;;;7.10;1.55;;;;;;;3.11;100.00;101415.34;4757012;30;20056;-83
2021/01/07 11:07:10;;;;;;;14.77;2.42;;;;;;;3.14;100.00;101406.63;4735356;30;20127;-83
2021/01/07 11:09:39;;;;;;;6.22;1.95;;;;;;;3.31;100.00;101406.53;4739059;30;20043;-83
2021/01/07 11:12:19;;;;;;;6.65;1.88;;;;;;;3.43;100.00;101408.22;4742582;30;20055;-82
2021/01/07 11:14:51;;;;;;;5.05;1.92;;;;;;;3.46;100.00;101398.59;4758469;30;20088;-83
2021/01/07 11:17:20;;;;;;;11.45;2.40;;;;;;;3.64;100.00;101397.63;4757109;30;20032;-83
2021/01/07 11:19:49;;;;;;;10.10;2.50;;;;;;;3.69;100.00;101393.22;4740331;30;20471;-81
2021/01/07 11:22:20;;;;;;;10.68;2.25;;;;;;;3.68;100.00;101398.47;4748906;30;20537;-81
2021/01/07 11:24:48;;;;;;;9.90;2.13;;;;;;;3.77;100.00;101401.88;4752740;30;20341;-81
2021/01/07 11:27:14;;;;;;;12.48;2.15;;;;;;;3.77;100.00;101394.06;4742333;30;20607;-80